sensor_id;sensor_type;location;lat;lon;timestamp;P1;durP1;ratioP1;P2;durP2;ratioP2
74469;SDS011;62918;55.706;37.816;2022-12-29T00:00:21;4.25;;;2.35;;
74469;SDS011;62918;55.706;37.816;2022-12-29T00:00:51;4.13;;;2.60;;
74469;SDS011;62918;55.706;37.816;2022-12-29T00:01:22;4.82;;;2.45;;
74469;SDS011;62918;55.706;37.816;2022-12-29T00:01:52;3.13;;;1.60;;
74469;SDS011;62918;55.706;37.816;2022-12-29T00:02:23;4.45;;;2.03;;
74469;SDS011;62918;55.706;37.816;2022-12-29T00:02:53;4.07;;;1.88;;
74469;SDS011;62918;55.706;37.816;2022-12-29T00:03:24;4.78;;;1.90;;
74469;SDS011;62918;55.706;37.816;2022-12-29T00:03:54;4.13;;;1.98;;
74469;SDS011;62918;55.706;37.816;2022-12-29T00:04:25;4.30;;;2.00;;
74469;SDS011;62918;55.706;37.816;2022-12-29T00:04:55;5.18;;;2.35;;
74469;SDS011;62918;55.706;37.816;2022-12-29T00:05:26;4.78;;;1.98;;
74469;SDS011;62918;55.706;37.816;2022-12-29T00:05:56;3.50;;;2.00;;
74469;SDS011;62918;55.706;37.816;2022-12-29T00:06:27;3.53;;;1.30;;
74469;SDS011;62918;55.706;37.816;2022-12-29T00:06:58;3.22;;;1.60;;
74469;SDS011;62918;55.706;37.816;2022-12-29T00:07:29;4.57;;;1.95;;
74469;SDS011;62918;55.706;37.816;2022-12-29T00:07:59;2.75;;;1.45;;
74469;SDS011;62918;55.706;37.816;2022-12-29T00:08:30;3.33;;;1.80;;
74469;SDS011;62918;55.706;37.816;2022-12-29T00:09:12;4.22;;;1.77;;
74469;SDS011;62918;55.706;37.816;2022-12-29T00:09:43;4.63;;;1.60;;
74469;SDS011;62918;55.706;37.816;2022-12-29T00:10:14;5.80;;;1.60;;
74469;SDS011;62918;55.706;37.816;2022-12-29T00:10:44;3.95;;;1.90;;
74469;SDS011;62918;55.706;37.816;2022-12-29T00:11:16;3.83;;;2.05;;
74469;SDS011;62918;55.706;37.816;2022-12-29T00:11:51;3.78;;;1.92;;
74469;SDS011;62918;55.706;37.816;2022-12-29T00:12:22;2.58;;;1.63;;
74469;SDS011;62918;55.706;37.816;2022-12-29T00:12:52;3.50;;;2.00;;
74469;SDS011;62918;55.706;37.816;2022-12-29T00:13:41;3.90;;;1.70;;
74469;SDS011;62918;55.706;37.816;2022-12-29T00:14:31;3.40;;;1.52;;
74469;SDS011;62918;55.706;37.816;2022-12-29T00:15:20;2.10;;;1.60;;
74469;SDS011;62918;55.706;37.816;2022-12-29T00:16:09;3.67;;;1.70;;
74469;SDS011;62918;55.706;37.816;2022-12-29T00:16:40;3.10;;;1.95;;
74469;SDS011;62918;55.706;37.816;2022-12-29T00:17:13;5.25;;;2.00;;
74469;SDS011;62918;55.706;37.816;2022-12-29T00:17:44;3.47;;;1.88;;
74469;SDS011;62918;55.706;37.816;2022-12-29T00:18:14;3.75;;;1.95;;
74469;SDS011;62918;55.706;37.816;2022-12-29T00:18:45;5.13;;;2.90;;
74469;SDS011;62918;55.706;37.816;2022-12-29T00:19:16;5.15;;;2.15;;
74469;SDS011;62918;55.706;37.816;2022-12-29T00:20:05;4.68;;;1.90;;
74469;SDS011;62918;55.706;37.816;2022-12-29T00:20:54;3.47;;;1.65;;
74469;SDS011;62918;55.706;37.816;2022-12-29T00:21:46;3.88;;;1.52;;
74469;SDS011;62918;55.706;37.816;2022-12-29T00:22:35;4.70;;;2.08;;
74469;SDS011;62918;55.706;37.816;2022-12-29T00:23:24;3.97;;;1.88;;
74469;SDS011;62918;55.706;37.816;2022-12-29T00:24:19;3.78;;;1.92;;
74469;SDS011;62918;55.706;37.816;2022-12-29T00:24:56;5.00;;;2.28;;
74469;SDS011;62918;55.706;37.816;2022-12-29T00:25:46;2.58;;;1.63;;
74469;SDS011;62918;55.706;37.816;2022-12-29T00:26:35;4.35;;;1.60;;
74469;SDS011;62918;55.706;37.816;2022-12-29T00:27:25;3.03;;;1.60;;
74469;SDS011;62918;55.706;37.816;2022-12-29T00:28:15;4.45;;;1.48;;
74469;SDS011;62918;55.706;37.816;2022-12-29T00:29:04;4.93;;;1.48;;
74469;SDS011;62918;55.706;37.816;2022-12-29T00:29:53;5.13;;;2.13;;
74469;SDS011;62918;55.706;37.816;2022-12-29T00:30:42;2.70;;;0.70;;
74469;SDS011;62918;55.706;37.816;2022-12-29T00:31:31;4.53;;;1.50;;
74469;SDS011;62918;55.706;37.816;2022-12-29T00:32:21;5.80;;;1.40;;
74469;SDS011;62918;55.706;37.816;2022-12-29T00:33:11;4.20;;;1.65;;
74469;SDS011;62918;55.706;37.816;2022-12-29T00:34:01;3.20;;;1.73;;
74469;SDS011;62918;55.706;37.816;2022-12-29T00:34:50;4.25;;;1.45;;
74469;SDS011;62918;55.706;37.816;2022-12-29T00:35:43;2.58;;;1.35;;
74469;SDS011;62918;55.706;37.816;2022-12-29T00:36:18;4.30;;;1.80;;
74469;SDS011;62918;55.706;37.816;2022-12-29T00:36:48;4.70;;;1.63;;
74469;SDS011;62918;55.706;37.816;2022-12-29T00:37:19;3.65;;;1.65;;
74469;SDS011;62918;55.706;37.816;2022-12-29T00:38:10;4.28;;;1.65;;
74469;SDS011;62918;55.706;37.816;2022-12-29T00:39:09;4.30;;;1.70;;
74469;SDS011;62918;55.706;37.816;2022-12-29T00:40:00;2.97;;;1.20;;
74469;SDS011;62918;55.706;37.816;2022-12-29T00:40:50;2.90;;;1.35;;
74469;SDS011;62918;55.706;37.816;2022-12-29T00:41:39;2.85;;;1.27;;
74469;SDS011;62918;55.706;37.816;2022-12-29T00:42:28;4.55;;;1.40;;
74469;SDS011;62918;55.706;37.816;2022-12-29T00:43:17;4.63;;;1.40;;
74469;SDS011;62918;55.706;37.816;2022-12-29T00:44:07;2.95;;;1.30;;
74469;SDS011;62918;55.706;37.816;2022-12-29T00:44:40;4.35;;;1.30;;
74469;SDS011;62918;55.706;37.816;2022-12-29T00:45:10;3.35;;;1.23;;
74469;SDS011;62918;55.706;37.816;2022-12-29T00:45:41;4.13;;;1.25;;
74469;SDS011;62918;55.706;37.816;2022-12-29T00:46:11;3.72;;;1.73;;
74469;SDS011;62918;55.706;37.816;2022-12-29T00:46:42;4.43;;;1.48;;
74469;SDS011;62918;55.706;37.816;2022-12-29T00:47:13;4.28;;;1.23;;
74469;SDS011;62918;55.706;37.816;2022-12-29T00:47:44;5.60;;;1.38;;
74469;SDS011;62918;55.706;37.816;2022-12-29T00:48:14;4.40;;;1.63;;
74469;SDS011;62918;55.706;37.816;2022-12-29T00:48:45;3.13;;;1.17;;
74469;SDS011;62918;55.706;37.816;2022-12-29T00:49:34;4.22;;;1.45;;
74469;SDS011;62918;55.706;37.816;2022-12-29T00:50:05;3.75;;;1.00;;
74469;SDS011;62918;55.706;37.816;2022-12-29T00:50:36;3.83;;;1.38;;
74469;SDS011;62918;55.706;37.816;2022-12-29T00:51:07;3.47;;;1.17;;
74469;SDS011;62918;55.706;37.816;2022-12-29T00:51:38;3.58;;;0.88;;
74469;SDS011;62918;55.706;37.816;2022-12-29T00:52:09;4.07;;;1.60;;
74469;SDS011;62918;55.706;37.816;2022-12-29T00:52:41;6.60;;;0.80;;
74469;SDS011;62918;55.706;37.816;2022-12-29T00:53:12;5.97;;;1.70;;
74469;SDS011;62918;55.706;37.816;2022-12-29T00:53:42;3.80;;;0.70;;
74469;SDS011;62918;55.706;37.816;2022-12-29T00:54:13;4.05;;;1.65;;
74469;SDS011;62918;55.706;37.816;2022-12-29T00:54:44;6.65;;;1.30;;
74469;SDS011;62918;55.706;37.816;2022-12-29T00:55:15;6.18;;;1.15;;
74469;SDS011;62918;55.706;37.816;2022-12-29T00:55:45;5.47;;;1.38;;
74469;SDS011;62918;55.706;37.816;2022-12-29T00:56:16;8.48;;;1.45;;
74469;SDS011;62918;55.706;37.816;2022-12-29T00:56:47;5.25;;;1.15;;
74469;SDS011;62918;55.706;37.816;2022-12-29T00:57:18;4.70;;;1.25;;
74469;SDS011;62918;55.706;37.816;2022-12-29T00:57:49;3.17;;;1.30;;
74469;SDS011;62918;55.706;37.816;2022-12-29T00:58:19;2.33;;;1.00;;
74469;SDS011;62918;55.706;37.816;2022-12-29T00:58:50;4.18;;;1.48;;
74469;SDS011;62918;55.706;37.816;2022-12-29T00:59:21;4.30;;;1.33;;
74469;SDS011;62918;55.706;37.816;2022-12-29T00:59:53;4.55;;;1.30;;
74469;SDS011;62918;55.706;37.816;2022-12-29T01:00:24;2.60;;;1.30;;
74469;SDS011;62918;55.706;37.816;2022-12-29T01:01:04;4.25;;;0.98;;
74469;SDS011;62918;55.706;37.816;2022-12-29T01:01:37;3.92;;;1.00;;
74469;SDS011;62918;55.706;37.816;2022-12-29T01:02:08;3.90;;;0.98;;
74469;SDS011;62918;55.706;37.816;2022-12-29T01:02:39;4.68;;;1.48;;
74469;SDS011;62918;55.706;37.816;2022-12-29T01:03:10;2.97;;;1.10;;
74469;SDS011;62918;55.706;37.816;2022-12-29T01:03:40;6.15;;;1.10;;
74469;SDS011;62918;55.706;37.816;2022-12-29T01:04:11;4.63;;;1.08;;
74469;SDS011;62918;55.706;37.816;2022-12-29T01:04:42;2.55;;;0.82;;
74469;SDS011;62918;55.706;37.816;2022-12-29T01:05:13;5.38;;;1.13;;
74469;SDS011;62918;55.706;37.816;2022-12-29T01:05:43;6.63;;;1.25;;
74469;SDS011;62918;55.706;37.816;2022-12-29T01:06:14;3.67;;;1.50;;
74469;SDS011;62918;55.706;37.816;2022-12-29T01:06:45;4.82;;;1.65;;
74469;SDS011;62918;55.706;37.816;2022-12-29T01:07:15;4.32;;;1.48;;
74469;SDS011;62918;55.706;37.816;2022-12-29T01:07:46;3.13;;;1.08;;
74469;SDS011;62918;55.706;37.816;2022-12-29T01:08:16;5.78;;;0.95;;
74469;SDS011;62918;55.706;37.816;2022-12-29T01:08:47;2.80;;;1.33;;
74469;SDS011;62918;55.706;37.816;2022-12-29T01:09:37;6.43;;;2.08;;
74469;SDS011;62918;55.706;37.816;2022-12-29T01:10:26;4.35;;;1.25;;
74469;SDS011;62918;55.706;37.816;2022-12-29T01:11:00;3.15;;;1.05;;
74469;SDS011;62918;55.706;37.816;2022-12-29T01:11:31;5.32;;;1.08;;
74469;SDS011;62918;55.706;37.816;2022-12-29T01:12:02;5.68;;;1.20;;
74469;SDS011;62918;55.706;37.816;2022-12-29T01:13:10;3.17;;;0.50;;
74469;SDS011;62918;55.706;37.816;2022-12-29T01:13:41;6.55;;;0.93;;
74469;SDS011;62918;55.706;37.816;2022-12-29T01:14:12;4.07;;;1.13;;
74469;SDS011;62918;55.706;37.816;2022-12-29T01:14:43;4.47;;;1.10;;
74469;SDS011;62918;55.706;37.816;2022-12-29T01:15:14;4.20;;;1.13;;
74469;SDS011;62918;55.706;37.816;2022-12-29T01:15:49;3.00;;;1.13;;
74469;SDS011;62918;55.706;37.816;2022-12-29T01:16:21;3.33;;;0.68;;
74469;SDS011;62918;55.706;37.816;2022-12-29T01:16:51;2.42;;;0.77;;
74469;SDS011;62918;55.706;37.816;2022-12-29T01:17:22;3.53;;;0.88;;
74469;SDS011;62918;55.706;37.816;2022-12-29T01:17:53;5.53;;;1.42;;
74469;SDS011;62918;55.706;37.816;2022-12-29T01:18:23;4.63;;;1.67;;
74469;SDS011;62918;55.706;37.816;2022-12-29T01:18:57;4.25;;;1.58;;
74469;SDS011;62918;55.706;37.816;2022-12-29T01:19:29;5.38;;;1.48;;
74469;SDS011;62918;55.706;37.816;2022-12-29T01:19:59;2.92;;;0.88;;
74469;SDS011;62918;55.706;37.816;2022-12-29T01:20:30;2.72;;;0.82;;
74469;SDS011;62918;55.706;37.816;2022-12-29T01:21:01;3.47;;;1.20;;
74469;SDS011;62918;55.706;37.816;2022-12-29T01:21:34;3.97;;;1.58;;
74469;SDS011;62918;55.706;37.816;2022-12-29T01:22:05;3.45;;;0.73;;
74469;SDS011;62918;55.706;37.816;2022-12-29T01:22:36;3.13;;;0.82;;
74469;SDS011;62918;55.706;37.816;2022-12-29T01:23:07;5.32;;;1.10;;
74469;SDS011;62918;55.706;37.816;2022-12-29T01:23:37;2.92;;;0.93;;
74469;SDS011;62918;55.706;37.816;2022-12-29T01:24:08;3.65;;;1.23;;
74469;SDS011;62918;55.706;37.816;2022-12-29T01:24:38;3.75;;;1.08;;
74469;SDS011;62918;55.706;37.816;2022-12-29T01:25:09;3.63;;;1.08;;
74469;SDS011;62918;55.706;37.816;2022-12-29T01:25:39;5.25;;;1.27;;
74469;SDS011;62918;55.706;37.816;2022-12-29T01:26:14;3.35;;;1.10;;
74469;SDS011;62918;55.706;37.816;2022-12-29T01:26:46;3.38;;;0.90;;
74469;SDS011;62918;55.706;37.816;2022-12-29T01:27:17;2.83;;;0.50;;
74469;SDS011;62918;55.706;37.816;2022-12-29T01:27:48;3.72;;;0.98;;
74469;SDS011;62918;55.706;37.816;2022-12-29T01:28:18;2.65;;;0.88;;
74469;SDS011;62918;55.706;37.816;2022-12-29T01:28:49;7.13;;;1.25;;
74469;SDS011;62918;55.706;37.816;2022-12-29T01:29:19;3.08;;;1.05;;
74469;SDS011;62918;55.706;37.816;2022-12-29T01:29:50;3.95;;;1.30;;
74469;SDS011;62918;55.706;37.816;2022-12-29T01:30:20;5.05;;;1.17;;
74469;SDS011;62918;55.706;37.816;2022-12-29T01:30:51;3.50;;;1.00;;
74469;SDS011;62918;55.706;37.816;2022-12-29T01:31:21;2.95;;;0.55;;
74469;SDS011;62918;55.706;37.816;2022-12-29T01:31:52;5.18;;;1.40;;
74469;SDS011;62918;55.706;37.816;2022-12-29T01:32:22;2.63;;;1.25;;
74469;SDS011;62918;55.706;37.816;2022-12-29T01:32:53;3.45;;;1.10;;
74469;SDS011;62918;55.706;37.816;2022-12-29T01:33:24;4.00;;;1.42;;
74469;SDS011;62918;55.706;37.816;2022-12-29T01:33:54;3.33;;;1.08;;
74469;SDS011;62918;55.706;37.816;2022-12-29T01:34:25;3.47;;;0.88;;
74469;SDS011;62918;55.706;37.816;2022-12-29T01:34:55;4.05;;;0.90;;
74469;SDS011;62918;55.706;37.816;2022-12-29T01:35:26;3.20;;;1.20;;
74469;SDS011;62918;55.706;37.816;2022-12-29T01:36:00;3.33;;;1.35;;
74469;SDS011;62918;55.706;37.816;2022-12-29T01:36:32;4.03;;;0.80;;
74469;SDS011;62918;55.706;37.816;2022-12-29T01:37:03;4.93;;;1.17;;
74469;SDS011;62918;55.706;37.816;2022-12-29T01:37:34;5.50;;;1.17;;
74469;SDS011;62918;55.706;37.816;2022-12-29T01:38:04;7.10;;;1.20;;
74469;SDS011;62918;55.706;37.816;2022-12-29T01:38:35;4.07;;;1.10;;
74469;SDS011;62918;55.706;37.816;2022-12-29T01:39:06;6.25;;;1.40;;
74469;SDS011;62918;55.706;37.816;2022-12-29T01:39:37;4.25;;;0.93;;
74469;SDS011;62918;55.706;37.816;2022-12-29T01:40:08;4.05;;;1.27;;
74469;SDS011;62918;55.706;37.816;2022-12-29T01:40:46;3.65;;;1.05;;
74469;SDS011;62918;55.706;37.816;2022-12-29T01:41:17;4.40;;;0.88;;
74469;SDS011;62918;55.706;37.816;2022-12-29T01:41:47;5.60;;;1.25;;
74469;SDS011;62918;55.706;37.816;2022-12-29T01:42:19;4.88;;;1.17;;
74469;SDS011;62918;55.706;37.816;2022-12-29T01:42:54;3.70;;;1.45;;
74469;SDS011;62918;55.706;37.816;2022-12-29T01:45:20;3.47;;;1.40;;
74469;SDS011;62918;55.706;37.816;2022-12-29T01:45:51;3.42;;;0.95;;
74469;SDS011;62918;55.706;37.816;2022-12-29T01:47:40;3.10;;;1.27;;
74469;SDS011;62918;55.706;37.816;2022-12-29T01:48:14;3.72;;;1.30;;
74469;SDS011;62918;55.706;37.816;2022-12-29T01:48:49;2.95;;;0.90;;
74469;SDS011;62918;55.706;37.816;2022-12-29T01:49:23;2.50;;;0.98;;
74469;SDS011;62918;55.706;37.816;2022-12-29T01:49:58;3.95;;;0.98;;
74469;SDS011;62918;55.706;37.816;2022-12-29T01:50:33;6.32;;;0.80;;
74469;SDS011;62918;55.706;37.816;2022-12-29T01:51:09;5.38;;;1.05;;
74469;SDS011;62918;55.706;37.816;2022-12-29T01:52:01;4.13;;;0.93;;
74469;SDS011;62918;55.706;37.816;2022-12-29T01:52:35;3.08;;;0.85;;
74469;SDS011;62918;55.706;37.816;2022-12-29T01:53:13;5.10;;;1.13;;
74469;SDS011;62918;55.706;37.816;2022-12-29T01:53:50;5.68;;;1.20;;
74469;SDS011;62918;55.706;37.816;2022-12-29T01:54:23;5.85;;;1.27;;
74469;SDS011;62918;55.706;37.816;2022-12-29T01:54:57;4.10;;;1.15;;
74469;SDS011;62918;55.706;37.816;2022-12-29T01:55:31;3.22;;;1.05;;
74469;SDS011;62918;55.706;37.816;2022-12-29T01:56:07;4.25;;;1.15;;
74469;SDS011;62918;55.706;37.816;2022-12-29T01:56:40;3.63;;;0.80;;
74469;SDS011;62918;55.706;37.816;2022-12-29T01:57:11;4.53;;;0.95;;
74469;SDS011;62918;55.706;37.816;2022-12-29T01:57:46;4.95;;;1.13;;
74469;SDS011;62918;55.706;37.816;2022-12-29T01:58:21;3.25;;;1.13;;
74469;SDS011;62918;55.706;37.816;2022-12-29T01:58:55;4.28;;;0.80;;
74469;SDS011;62918;55.706;37.816;2022-12-29T01:59:36;6.82;;;1.13;;
74469;SDS011;62918;55.706;37.816;2022-12-29T02:00:13;2.17;;;0.43;;
74469;SDS011;62918;55.706;37.816;2022-12-29T02:00:44;3.50;;;1.10;;
74469;SDS011;62918;55.706;37.816;2022-12-29T02:01:15;5.18;;;0.90;;
74469;SDS011;62918;55.706;37.816;2022-12-29T02:01:49;4.57;;;1.38;;
74469;SDS011;62918;55.706;37.816;2022-12-29T02:02:21;5.55;;;2.22;;
74469;SDS011;62918;55.706;37.816;2022-12-29T02:02:52;3.40;;;1.90;;
74469;SDS011;62918;55.706;37.816;2022-12-29T02:03:24;5.18;;;1.70;;
74469;SDS011;62918;55.706;37.816;2022-12-29T02:03:56;6.10;;;2.08;;
74469;SDS011;62918;55.706;37.816;2022-12-29T02:04:27;4.63;;;2.35;;
74469;SDS011;62918;55.706;37.816;2022-12-29T02:05:07;6.60;;;1.98;;
74469;SDS011;62918;55.706;37.816;2022-12-29T02:06:18;5.97;;;1.48;;
74469;SDS011;62918;55.706;37.816;2022-12-29T02:06:53;3.50;;;1.10;;
74469;SDS011;62918;55.706;37.816;2022-12-29T02:07:32;4.15;;;1.38;;
74469;SDS011;62918;55.706;37.816;2022-12-29T02:08:02;4.45;;;1.10;;
74469;SDS011;62918;55.706;37.816;2022-12-29T02:08:33;2.80;;;0.80;;
74469;SDS011;62918;55.706;37.816;2022-12-29T02:09:04;3.90;;;1.55;;
74469;SDS011;62918;55.706;37.816;2022-12-29T02:09:35;3.60;;;1.27;;
74469;SDS011;62918;55.706;37.816;2022-12-29T02:10:06;5.72;;;1.58;;
74469;SDS011;62918;55.706;37.816;2022-12-29T02:10:37;3.35;;;1.10;;
74469;SDS011;62918;55.706;37.816;2022-12-29T02:11:09;5.22;;;1.63;;
74469;SDS011;62918;55.706;37.816;2022-12-29T02:11:40;3.20;;;1.17;;
74469;SDS011;62918;55.706;37.816;2022-12-29T02:12:10;4.30;;;1.17;;
74469;SDS011;62918;55.706;37.816;2022-12-29T02:12:41;5.32;;;1.38;;
74469;SDS011;62918;55.706;37.816;2022-12-29T02:13:14;6.95;;;1.52;;
74469;SDS011;62918;55.706;37.816;2022-12-29T02:13:46;5.85;;;1.20;;
74469;SDS011;62918;55.706;37.816;2022-12-29T02:14:17;5.82;;;1.20;;
74469;SDS011;62918;55.706;37.816;2022-12-29T02:14:48;4.78;;;1.23;;
74469;SDS011;62918;55.706;37.816;2022-12-29T02:23:29;4.50;;;1.08;;
74469;SDS011;62918;55.706;37.816;2022-12-29T02:24:08;5.10;;;1.35;;
74469;SDS011;62918;55.706;37.816;2022-12-29T02:27:01;4.00;;;1.52;;
74469;SDS011;62918;55.706;37.816;2022-12-29T02:27:15;5.25;;;0.75;;
74469;SDS011;62918;55.706;37.816;2022-12-29T02:28:23;5.82;;;2.00;;
74469;SDS011;62918;55.706;37.816;2022-12-29T02:30:03;4.60;;;1.30;;
74469;SDS011;62918;55.706;37.816;2022-12-29T02:30:42;3.63;;;0.70;;
74469;SDS011;62918;55.706;37.816;2022-12-29T02:32:12;4.65;;;1.23;;
74469;SDS011;62918;55.706;37.816;2022-12-29T02:34:39;3.70;;;1.55;;
74469;SDS011;62918;55.706;37.816;2022-12-29T02:35:53;3.92;;;1.25;;
74469;SDS011;62918;55.706;37.816;2022-12-29T02:37:39;5.45;;;1.58;;
74469;SDS011;62918;55.706;37.816;2022-12-29T02:38:18;3.22;;;1.13;;
74469;SDS011;62918;55.706;37.816;2022-12-29T02:39:47;5.22;;;1.65;;
74469;SDS011;62918;55.706;37.816;2022-12-29T02:40:48;6.03;;;1.60;;
74469;SDS011;62918;55.706;37.816;2022-12-29T02:41:31;4.25;;;1.40;;
74469;SDS011;62918;55.706;37.816;2022-12-29T02:43:00;4.45;;;1.40;;
74469;SDS011;62918;55.706;37.816;2022-12-29T02:44:25;3.22;;;0.80;;
74469;SDS011;62918;55.706;37.816;2022-12-29T02:49:15;5.72;;;2.33;;
74469;SDS011;62918;55.706;37.816;2022-12-29T02:49:48;6.93;;;1.63;;
74469;SDS011;62918;55.706;37.816;2022-12-29T02:50:25;6.40;;;1.73;;
74469;SDS011;62918;55.706;37.816;2022-12-29T02:51:03;4.60;;;1.33;;
74469;SDS011;62918;55.706;37.816;2022-12-29T02:51:44;6.75;;;1.40;;
74469;SDS011;62918;55.706;37.816;2022-12-29T02:52:25;5.38;;;1.38;;
74469;SDS011;62918;55.706;37.816;2022-12-29T02:53:02;5.35;;;2.28;;
74469;SDS011;62918;55.706;37.816;2022-12-29T02:53:37;7.90;;;2.03;;
74469;SDS011;62918;55.706;37.816;2022-12-29T02:54:27;6.35;;;1.70;;
74469;SDS011;62918;55.706;37.816;2022-12-29T02:55:11;4.55;;;1.30;;
74469;SDS011;62918;55.706;37.816;2022-12-29T02:55:49;5.30;;;1.38;;
74469;SDS011;62918;55.706;37.816;2022-12-29T02:56:20;7.53;;;2.83;;
74469;SDS011;62918;55.706;37.816;2022-12-29T02:56:51;6.88;;;2.75;;
74469;SDS011;62918;55.706;37.816;2022-12-29T02:58:38;5.25;;;2.00;;
74469;SDS011;62918;55.706;37.816;2022-12-29T02:59:09;7.43;;;2.70;;
74469;SDS011;62918;55.706;37.816;2022-12-29T02:59:43;5.85;;;2.08;;
74469;SDS011;62918;55.706;37.816;2022-12-29T03:00:16;6.13;;;1.65;;
74469;SDS011;62918;55.706;37.816;2022-12-29T03:01:02;5.35;;;1.00;;
74469;SDS011;62918;55.706;37.816;2022-12-29T03:11:03;5.90;;;2.38;;
74469;SDS011;62918;55.706;37.816;2022-12-29T03:13:43;6.80;;;2.53;;
74469;SDS011;62918;55.706;37.816;2022-12-29T03:17:00;6.07;;;1.65;;
74469;SDS011;62918;55.706;37.816;2022-12-29T03:18:26;7.53;;;2.63;;
74469;SDS011;62918;55.706;37.816;2022-12-29T03:19:23;4.63;;;1.38;;
74469;SDS011;62918;55.706;37.816;2022-12-29T03:20:06;6.22;;;1.60;;
74469;SDS011;62918;55.706;37.816;2022-12-29T03:20:43;7.43;;;1.85;;
74469;SDS011;62918;55.706;37.816;2022-12-29T03:22:47;7.68;;;2.08;;
74469;SDS011;62918;55.706;37.816;2022-12-29T03:23:21;3.78;;;1.35;;
74469;SDS011;62918;55.706;37.816;2022-12-29T03:23:53;6.47;;;1.40;;
74469;SDS011;62918;55.706;37.816;2022-12-29T03:24:25;5.25;;;1.50;;
74469;SDS011;62918;55.706;37.816;2022-12-29T03:25:06;5.28;;;1.48;;
74469;SDS011;62918;55.706;37.816;2022-12-29T03:25:43;6.60;;;2.00;;
74469;SDS011;62918;55.706;37.816;2022-12-29T03:26:18;7.78;;;1.92;;
74469;SDS011;62918;55.706;37.816;2022-12-29T03:26:50;5.00;;;1.88;;
74469;SDS011;62918;55.706;37.816;2022-12-29T03:27:29;6.55;;;2.45;;
74469;SDS011;62918;55.706;37.816;2022-12-29T03:28:03;6.03;;;2.42;;
74469;SDS011;62918;55.706;37.816;2022-12-29T03:28:39;8.88;;;3.05;;
74469;SDS011;62918;55.706;37.816;2022-12-29T03:29:14;4.95;;;1.63;;
74469;SDS011;62918;55.706;37.816;2022-12-29T03:29:50;4.88;;;1.70;;
74469;SDS011;62918;55.706;37.816;2022-12-29T03:30:25;6.28;;;2.30;;
74469;SDS011;62918;55.706;37.816;2022-12-29T03:30:58;5.47;;;1.98;;
74469;SDS011;62918;55.706;37.816;2022-12-29T03:31:29;4.07;;;1.52;;
74469;SDS011;62918;55.706;37.816;2022-12-29T03:32:00;6.32;;;2.25;;
74469;SDS011;62918;55.706;37.816;2022-12-29T03:32:36;7.07;;;2.25;;
74469;SDS011;62918;55.706;37.816;2022-12-29T03:33:13;6.40;;;2.17;;
74469;SDS011;62918;55.706;37.816;2022-12-29T03:33:47;5.93;;;1.80;;
74469;SDS011;62918;55.706;37.816;2022-12-29T03:34:19;8.05;;;2.33;;
74469;SDS011;62918;55.706;37.816;2022-12-29T03:34:51;5.28;;;1.80;;
74469;SDS011;62918;55.706;37.816;2022-12-29T03:35:25;5.35;;;1.77;;
74469;SDS011;62918;55.706;37.816;2022-12-29T03:35:59;3.97;;;2.10;;
74469;SDS011;62918;55.706;37.816;2022-12-29T03:36:39;4.80;;;1.60;;
74469;SDS011;62918;55.706;37.816;2022-12-29T03:37:20;6.97;;;1.52;;
74469;SDS011;62918;55.706;37.816;2022-12-29T03:39:15;4.38;;;1.02;;
74469;SDS011;62918;55.706;37.816;2022-12-29T03:39:50;4.82;;;2.17;;
74469;SDS011;62918;55.706;37.816;2022-12-29T03:40:20;7.47;;;2.17;;
74469;SDS011;62918;55.706;37.816;2022-12-29T03:40:55;6.30;;;1.58;;
74469;SDS011;62918;55.706;37.816;2022-12-29T03:41:29;4.85;;;1.73;;
74469;SDS011;62918;55.706;37.816;2022-12-29T03:42:02;4.03;;;1.10;;
74469;SDS011;62918;55.706;37.816;2022-12-29T03:42:36;6.63;;;2.22;;
74469;SDS011;62918;55.706;37.816;2022-12-29T03:43:08;4.43;;;1.90;;
74469;SDS011;62918;55.706;37.816;2022-12-29T03:43:39;5.90;;;1.75;;
74469;SDS011;62918;55.706;37.816;2022-12-29T03:44:10;6.75;;;2.20;;
74469;SDS011;62918;55.706;37.816;2022-12-29T03:44:43;4.88;;;1.70;;
74469;SDS011;62918;55.706;37.816;2022-12-29T03:45:45;6.38;;;1.92;;
74469;SDS011;62918;55.706;37.816;2022-12-29T03:46:16;5.50;;;1.90;;
74469;SDS011;62918;55.706;37.816;2022-12-29T03:46:46;5.60;;;2.05;;
74469;SDS011;62918;55.706;37.816;2022-12-29T03:47:17;7.25;;;2.00;;
74469;SDS011;62918;55.706;37.816;2022-12-29T03:47:48;5.43;;;1.83;;
74469;SDS011;62918;55.706;37.816;2022-12-29T03:48:18;6.47;;;1.85;;
74469;SDS011;62918;55.706;37.816;2022-12-29T03:48:49;5.93;;;2.47;;
74469;SDS011;62918;55.706;37.816;2022-12-29T03:49:19;4.65;;;2.28;;
74469;SDS011;62918;55.706;37.816;2022-12-29T03:49:50;7.65;;;2.05;;
74469;SDS011;62918;55.706;37.816;2022-12-29T03:50:21;6.40;;;1.65;;
74469;SDS011;62918;55.706;37.816;2022-12-29T03:50:52;8.23;;;2.33;;
74469;SDS011;62918;55.706;37.816;2022-12-29T03:51:22;5.88;;;1.92;;
74469;SDS011;62918;55.706;37.816;2022-12-29T03:51:53;6.45;;;1.98;;
74469;SDS011;62918;55.706;37.816;2022-12-29T03:52:23;5.35;;;1.88;;
74469;SDS011;62918;55.706;37.816;2022-12-29T03:52:54;7.88;;;1.95;;
74469;SDS011;62918;55.706;37.816;2022-12-29T03:53:24;5.25;;;2.30;;
74469;SDS011;62918;55.706;37.816;2022-12-29T03:53:55;6.20;;;2.08;;
74469;SDS011;62918;55.706;37.816;2022-12-29T03:54:26;6.45;;;2.05;;
74469;SDS011;62918;55.706;37.816;2022-12-29T03:54:56;5.60;;;2.45;;
74469;SDS011;62918;55.706;37.816;2022-12-29T03:55:27;6.43;;;2.40;;
74469;SDS011;62918;55.706;37.816;2022-12-29T03:55:57;7.35;;;3.38;;
74469;SDS011;62918;55.706;37.816;2022-12-29T03:56:28;6.60;;;2.92;;
74469;SDS011;62918;55.706;37.816;2022-12-29T03:56:58;8.10;;;3.00;;
74469;SDS011;62918;55.706;37.816;2022-12-29T03:57:29;8.25;;;3.58;;
74469;SDS011;62918;55.706;37.816;2022-12-29T03:58:00;7.10;;;2.95;;
74469;SDS011;62918;55.706;37.816;2022-12-29T03:58:30;8.07;;;2.70;;
74469;SDS011;62918;55.706;37.816;2022-12-29T03:59:01;7.15;;;2.95;;
74469;SDS011;62918;55.706;37.816;2022-12-29T03:59:32;8.50;;;2.55;;
74469;SDS011;62918;55.706;37.816;2022-12-29T04:00:03;4.47;;;2.10;;
74469;SDS011;62918;55.706;37.816;2022-12-29T04:00:35;6.32;;;1.80;;
74469;SDS011;62918;55.706;37.816;2022-12-29T04:01:05;9.10;;;2.03;;
74469;SDS011;62918;55.706;37.816;2022-12-29T04:01:36;6.40;;;1.80;;
74469;SDS011;62918;55.706;37.816;2022-12-29T04:02:07;7.72;;;1.80;;
74469;SDS011;62918;55.706;37.816;2022-12-29T04:02:37;4.25;;;1.30;;
74469;SDS011;62918;55.706;37.816;2022-12-29T04:03:08;8.10;;;2.15;;
74469;SDS011;62918;55.706;37.816;2022-12-29T04:03:38;5.20;;;2.00;;
74469;SDS011;62918;55.706;37.816;2022-12-29T04:04:09;6.65;;;2.67;;
74469;SDS011;62918;55.706;37.816;2022-12-29T04:04:39;6.80;;;2.85;;
74469;SDS011;62918;55.706;37.816;2022-12-29T04:05:10;5.82;;;1.15;;
74469;SDS011;62918;55.706;37.816;2022-12-29T04:05:40;6.28;;;1.60;;
74469;SDS011;62918;55.706;37.816;2022-12-29T04:06:11;5.03;;;2.08;;
74469;SDS011;62918;55.706;37.816;2022-12-29T04:06:42;7.75;;;1.70;;
74469;SDS011;62918;55.706;37.816;2022-12-29T04:07:12;7.25;;;1.83;;
74469;SDS011;62918;55.706;37.816;2022-12-29T04:07:43;5.32;;;1.27;;
74469;SDS011;62918;55.706;37.816;2022-12-29T04:08:13;8.43;;;1.85;;
74469;SDS011;62918;55.706;37.816;2022-12-29T04:08:44;7.32;;;1.70;;
74469;SDS011;62918;55.706;37.816;2022-12-29T04:09:14;4.55;;;1.67;;
74469;SDS011;62918;55.706;37.816;2022-12-29T04:09:45;7.50;;;1.92;;
74469;SDS011;62918;55.706;37.816;2022-12-29T04:10:15;8.07;;;1.98;;
74469;SDS011;62918;55.706;37.816;2022-12-29T04:10:47;6.72;;;2.75;;
74469;SDS011;62918;55.706;37.816;2022-12-29T04:11:19;5.68;;;2.20;;